CheckWX is a tool to help pilots better visualize weather data.  It is not intended as a substitute for an official pre-flight weather briefing.

19:39:59 UTC

KJNX METAR
Johnston County Airport
Smithfield, North Carolina, USA
Current

25 mins ago

KJNX 111915Z AUTO 26003KT 10SM CLR 32/18 A2980 RMK AO2
Observed
Jul-11 @ 19:15 UTC
Wind
  • 260° at 3 KTS
Visibility
10 SM
Flight Rules
VFR
Cloud Levels
  • Clear skies
Temperature
32°C / 90°F
Dewpoint
18°C / 64°F
Humidity
43%
Altimeter
29.8" Hg
Pressure
1009.12 hPa
Previous

45 mins ago

KJNX 111855Z AUTO 29005KT 10SM CLR 32/18 A2980 RMK AO2
Observed
Jul-11 @ 18:55 UTC
Wind
  • 290° at 5 KTS
Visibility
10 SM
Flight Rules
VFR
Cloud Levels
  • Clear skies
Temperature
32°C / 90°F
Dewpoint
18°C / 64°F
Humidity
43%
Altimeter
29.8" Hg
Pressure
1009.12 hPa
Previous

1 hour ago

KJNX 111835Z AUTO 26004KT 10SM SCT055 32/19 A2981 RMK AO2
Observed
Jul-11 @ 18:35 UTC
Wind
  • 260° at 4 KTS
Visibility
10 SM
Flight Rules
VFR
Cloud Levels
  • Scattered at 5,500' AGL
Temperature
32°C / 90°F
Dewpoint
19°C / 66°F
Humidity
46%
Altimeter
29.81" Hg
Pressure
1009.52 hPa